Pamlico — WX6900 — position and weather

sailwx.info

Track history (hours):
 
Tides and Currents Weather Stations Pressure Air Temp Water Temp Dewpoint Dewpoint Depression Visibility Wind Speed Wind Dir Waves Ship Positions

Pamlico

Owner: PCS Phosphate, AURORA, NC. More information available from US FCC via Universal Licensing System and Coast Guard Vessel Documentation Center.

Last reported at 2016-May-05 22:33 UTC. Time now 2016-May-06 03:39 UTC.
Position N 34°47' W 076°41'.

Length 30 m; draft 3 m.

MMSI: 367361220.

Date/timePositionNaut miles runAvg speedWind from/ knotsBaromVisibWave heightAir tempDewpointWater temp
2016-May-05 22:33N 34°47' W 076°41'3 3.4
2016-May-05 21:33N 34°43' W 076°42'0 0.2
2016-May-05 20:33N 34°43' W 076°42'0 0.0
2016-May-05 19:33N 34°43' W 076°42'0 0.0
2016-May-05 18:33N 34°43' W 076°42'0 0.0
2016-May-05 17:33N 34°43' W 076°42'0 0.0
2016-May-05 16:33N 34°43' W 076°42'0 0.0
2016-May-05 15:33N 34°43' W 076°42'0 0.0
2016-May-05 14:33N 34°43' W 076°42'0 0.0
2016-May-05 13:33N 34°43' W 076°42'0 0.0
2016-May-05 12:33N 34°43' W 076°42'0 0.0
2016-May-05 11:33N 34°43' W 076°42'0 0.0
2016-May-05 10:33N 34°43' W 076°42'0 0.0
2016-May-05 09:33N 34°43' W 076°42'0 0.0
2016-May-05 08:33N 34°43' W 076°42'0 0.0
2016-May-05 07:33N 34°43' W 076°42'0 0.0
2016-May-05 06:33N 34°43' W 076°42'0 0.0
2016-May-05 05:33N 34°43' W 076°42'0 0.0
2016-May-05 04:33N 34°43' W 076°42'0 0.0
2016-May-05 03:33N 34°43' W 076°42'0 0.2
2016-May-05 02:33N 34°43' W 076°42'4 3.6
2016-May-05 01:33N 34°47' W 076°41'3 0.1
2016-May-03 06:16N 34°50' W 076°41'5 7.1
2016-May-03 05:33N 34°45' W 076°41'2 2.2
2016-May-03 04:33N 34°43' W 076°42'0 0.0
2016-May-03 03:33N 34°43' W 076°42'0 0.0
2016-May-03 02:33N 34°43' W 076°42'0 0.0
2016-May-03 01:34N 34°43' W 076°42'0 0.0
2016-May-03 00:33N 34°43' W 076°42'0 0.0
2016-May-02 23:33N 34°43' W 076°42'0 0.0
2016-May-02 22:33N 34°43' W 076°42'0 0.0
2016-May-02 21:33N 34°43' W 076°42'0 0.0
2016-May-02 20:33N 34°43' W 076°42'0 0.0
2016-May-02 19:33N 34°43' W 076°42'0 0.0
2016-May-02 18:33N 34°43' W 076°42'0 0.2
2016-May-02 17:33N 34°43' W 076°42'2 1.8
2016-May-02 16:33N 34°45' W 076°41'3 0.1
2016-May-01 05:33N 34°48' W 076°41'5 4.6
2016-May-01 04:33N 34°43' W 076°42'0 0.1
2016-May-01 03:33N 34°43' W 076°42'0 0.0
2016-May-01 02:33N 34°43' W 076°42'0 0.0
2016-May-01 01:33N 34°43' W 076°42'0 0.0
2016-May-01 00:33N 34°43' W 076°42'0 0.0
2016-Apr-30 23:33N 34°43' W 076°42'0 0.0
2016-Apr-30 22:33N 34°43' W 076°42'0 0.0
2016-Apr-30 21:33N 34°43' W 076°42'0 0.0
2016-Apr-30 20:33N 34°43' W 076°42'0 0.0
2016-Apr-30 19:33N 34°43' W 076°42'0 0.0
2016-Apr-30 18:33N 34°43' W 076°42'2 1.6
2016-Apr-30 17:33N 34°45' W 076°41'5 0.2
2016-Apr-29 14:25N 34°50' W 076°41'5 5.8
2016-Apr-29 13:33N 34°45' W 076°41'2 2.1
2016-Apr-29 12:33N 34°43' W 076°42'0 0.1
2016-Apr-29 11:33N 34°43' W 076°42'0 0.1
2016-Apr-29 10:33N 34°43' W 076°42'0 0.0
2016-Apr-29 09:33N 34°43' W 076°42'0 0.0
2016-Apr-29 08:33N 34°43' W 076°42'0 0.0
2016-Apr-29 07:33N 34°43' W 076°42'0 0.0
2016-Apr-29 06:33N 34°43' W 076°42'0 0.0
2016-Apr-29 05:33N 34°43' W 076°42'0 0.0
2016-Apr-29 04:33N 34°43' W 076°42'0 0.0
2016-Apr-29 03:33N 34°43' W 076°42'0 0.1
2016-Apr-29 02:33N 34°43' W 076°42'3 2.7
2016-Apr-29 01:33N 34°46' W 076°41'1 0.0
2016-Apr-28 06:33N 34°46' W 076°41'3 3.1
2016-Apr-28 05:33N 34°43' W 076°42'0 0.0
2016-Apr-28 04:33N 34°43' W 076°42'0 0.0
2016-Apr-28 03:33N 34°43' W 076°42'0 0.0
2016-Apr-28 02:33N 34°43' W 076°42'0 0.0
2016-Apr-28 01:33N 34°43' W 076°42'0 0.0
2016-Apr-28 00:33N 34°43' W 076°42'0 0.0
2016-Apr-27 23:33N 34°43' W 076°42'0 0.1
2016-Apr-27 22:33N 34°43' W 076°42'4 4.4
2016-Apr-27 21:33N 34°47' W 076°41'1 0.1
2016-Apr-27 01:21N 34°49' W 076°41'6 7.2
2016-Apr-27 00:33N 34°43' W 076°42'0 0.3
2016-Apr-26 23:33N 34°43' W 076°42'0 0.0
2016-Apr-26 22:33N 34°43' W 076°42'0 0.0
2016-Apr-26 21:33N 34°43' W 076°42'0 0.0
2016-Apr-26 20:33N 34°43' W 076°42'0 0.0
2016-Apr-26 19:33N 34°43' W 076°42'0 0.0
2016-Apr-26 18:33N 34°43' W 076°42'0 0.0
2016-Apr-26 17:33N 34°43' W 076°42'0 0.0
2016-Apr-26 16:33N 34°43' W 076°42'0 0.0
2016-Apr-26 15:33N 34°43' W 076°42'0 0.4
2016-Apr-26 14:33N 34°43' W 076°41'0 0.0
2016-Apr-26 13:33N 34°43' W 076°41'0 0.0
2016-Apr-26 12:33N 34°43' W 076°41'0 0.0
2016-Apr-26 11:33N 34°43' W 076°41'0 0.0
2016-Apr-26 10:33N 34°43' W 076°41'0 0.0
2016-Apr-26 09:34N 34°43' W 076°41'0 0.0
2016-Apr-26 08:33N 34°43' W 076°41'0 0.0
2016-Apr-26 07:33N 34°43' W 076°41'0 0.0
2016-Apr-26 06:33N 34°43' W 076°41'0 0.0
2016-Apr-26 05:34N 34°43' W 076°41'0 0.0
2016-Apr-26 04:33N 34°43' W 076°41'0 0.0
2016-Apr-26 03:33N 34°43' W 076°41'0 0.0
2016-Apr-26 02:33N 34°43' W 076°41'0 0.0
2016-Apr-26 01:33N 34°43' W 076°41'0 0.0
2016-Apr-26 00:33N 34°43' W 076°41'0 0.0
2016-Apr-25 23:33N 34°43' W 076°41'0 0.0
2016-Apr-25 22:33N 34°43' W 076°41'  
Track history (hours):
 
Tides and Currents Weather Stations Pressure Air Temp Water Temp Dewpoint Dewpoint Depression Visibility Wind Speed Wind Dir Waves Ship Positions

Pamlico

Owner: PCS Phosphate, AURORA, NC. More information available from US FCC via Universal Licensing System and Coast Guard Vessel Documentation Center.

Last reported at 2016-May-05 22:33 UTC. Time now 2016-May-06 03:39 UTC.
Position N 34°47' W 076°41'.

Length 30 m; draft 3 m.

MMSI: 367361220.

Date/timePositionNaut miles runAvg speedWind from/ knotsBaromVisibWave heightAir tempDewpointWater temp
2016-May-05 22:33N 34°47' W 076°41'3 3.4
2016-May-05 21:33N 34°43' W 076°42'0 0.2
2016-May-05 20:33N 34°43' W 076°42'0 0.0
2016-May-05 19:33N 34°43' W 076°42'0 0.0
2016-May-05 18:33N 34°43' W 076°42'0 0.0
2016-May-05 17:33N 34°43' W 076°42'0 0.0
2016-May-05 16:33N 34°43' W 076°42'0 0.0
2016-May-05 15:33N 34°43' W 076°42'0 0.0
2016-May-05 14:33N 34°43' W 076°42'0 0.0
2016-May-05 13:33N 34°43' W 076°42'0 0.0
2016-May-05 12:33N 34°43' W 076°42'0 0.0
2016-May-05 11:33N 34°43' W 076°42'0 0.0
2016-May-05 10:33N 34°43' W 076°42'0 0.0
2016-May-05 09:33N 34°43' W 076°42'0 0.0
2016-May-05 08:33N 34°43' W 076°42'0 0.0
2016-May-05 07:33N 34°43' W 076°42'0 0.0
2016-May-05 06:33N 34°43' W 076°42'0 0.0
2016-May-05 05:33N 34°43' W 076°42'0 0.0
2016-May-05 04:33N 34°43' W 076°42'0 0.0
2016-May-05 03:33N 34°43' W 076°42'0 0.2
2016-May-05 02:33N 34°43' W 076°42'4 3.6
2016-May-05 01:33N 34°47' W 076°41'3 0.1
2016-May-03 06:16N 34°50' W 076°41'5 7.1
2016-May-03 05:33N 34°45' W 076°41'2 2.2
2016-May-03 04:33N 34°43' W 076°42'0 0.0
2016-May-03 03:33N 34°43' W 076°42'0 0.0
2016-May-03 02:33N 34°43' W 076°42'0 0.0
2016-May-03 01:34N 34°43' W 076°42'0 0.0
2016-May-03 00:33N 34°43' W 076°42'0 0.0
2016-May-02 23:33N 34°43' W 076°42'0 0.0
2016-May-02 22:33N 34°43' W 076°42'0 0.0
2016-May-02 21:33N 34°43' W 076°42'0 0.0
2016-May-02 20:33N 34°43' W 076°42'0 0.0
2016-May-02 19:33N 34°43' W 076°42'0 0.0
2016-May-02 18:33N 34°43' W 076°42'0 0.2
2016-May-02 17:33N 34°43' W 076°42'2 1.8
2016-May-02 16:33N 34°45' W 076°41'3 0.1
2016-May-01 05:33N 34°48' W 076°41'5 4.6
2016-May-01 04:33N 34°43' W 076°42'0 0.1
2016-May-01 03:33N 34°43' W 076°42'0 0.0
2016-May-01 02:33N 34°43' W 076°42'0 0.0
2016-May-01 01:33N 34°43' W 076°42'0 0.0
2016-May-01 00:33N 34°43' W 076°42'0 0.0
2016-Apr-30 23:33N 34°43' W 076°42'0 0.0
2016-Apr-30 22:33N 34°43' W 076°42'0 0.0
2016-Apr-30 21:33N 34°43' W 076°42'0 0.0
2016-Apr-30 20:33N 34°43' W 076°42'0 0.0
2016-Apr-30 19:33N 34°43' W 076°42'0 0.0
2016-Apr-30 18:33N 34°43' W 076°42'2 1.6
2016-Apr-30 17:33N 34°45' W 076°41'5 0.2
2016-Apr-29 14:25N 34°50' W 076°41'5 5.8
2016-Apr-29 13:33N 34°45' W 076°41'2 2.1
2016-Apr-29 12:33N 34°43' W 076°42'0 0.1
2016-Apr-29 11:33N 34°43' W 076°42'0 0.1
2016-Apr-29 10:33N 34°43' W 076°42'0 0.0
2016-Apr-29 09:33N 34°43' W 076°42'0 0.0
2016-Apr-29 08:33N 34°43' W 076°42'0 0.0
2016-Apr-29 07:33N 34°43' W 076°42'0 0.0
2016-Apr-29 06:33N 34°43' W 076°42'0 0.0
2016-Apr-29 05:33N 34°43' W 076°42'0 0.0
2016-Apr-29 04:33N 34°43' W 076°42'0 0.0
2016-Apr-29 03:33N 34°43' W 076°42'0 0.1
2016-Apr-29 02:33N 34°43' W 076°42'3 2.7
2016-Apr-29 01:33N 34°46' W 076°41'1 0.0
2016-Apr-28 06:33N 34°46' W 076°41'3 3.1
2016-Apr-28 05:33N 34°43' W 076°42'0 0.0
2016-Apr-28 04:33N 34°43' W 076°42'0 0.0
2016-Apr-28 03:33N 34°43' W 076°42'0 0.0
2016-Apr-28 02:33N 34°43' W 076°42'0 0.0
2016-Apr-28 01:33N 34°43' W 076°42'0 0.0
2016-Apr-28 00:33N 34°43' W 076°42'0 0.0
2016-Apr-27 23:33N 34°43' W 076°42'0 0.1
2016-Apr-27 22:33N 34°43' W 076°42'4 4.4
2016-Apr-27 21:33N 34°47' W 076°41'1 0.1
2016-Apr-27 01:21N 34°49' W 076°41'6 7.2
2016-Apr-27 00:33N 34°43' W 076°42'0 0.3
2016-Apr-26 23:33N 34°43' W 076°42'0 0.0
2016-Apr-26 22:33N 34°43' W 076°42'0 0.0
2016-Apr-26 21:33N 34°43' W 076°42'0 0.0
2016-Apr-26 20:33N 34°43' W 076°42'0 0.0
2016-Apr-26 19:33N 34°43' W 076°42'0 0.0
2016-Apr-26 18:33N 34°43' W 076°42'0 0.0
2016-Apr-26 17:33N 34°43' W 076°42'0 0.0
2016-Apr-26 16:33N 34°43' W 076°42'0 0.0
2016-Apr-26 15:33N 34°43' W 076°42'0 0.4
2016-Apr-26 14:33N 34°43' W 076°41'0 0.0
2016-Apr-26 13:33N 34°43' W 076°41'0 0.0
2016-Apr-26 12:33N 34°43' W 076°41'0 0.0
2016-Apr-26 11:33N 34°43' W 076°41'0 0.0
2016-Apr-26 10:33N 34°43' W 076°41'0 0.0
2016-Apr-26 09:34N 34°43' W 076°41'0 0.0
2016-Apr-26 08:33N 34°43' W 076°41'0 0.0
2016-Apr-26 07:33N 34°43' W 076°41'0 0.0
2016-Apr-26 06:33N 34°43' W 076°41'0 0.0
2016-Apr-26 05:34N 34°43' W 076°41'0 0.0
2016-Apr-26 04:33N 34°43' W 076°41'0 0.0
2016-Apr-26 03:33N 34°43' W 076°41'0 0.0
2016-Apr-26 02:33N 34°43' W 076°41'0 0.0
2016-Apr-26 01:33N 34°43' W 076°41'0 0.0
2016-Apr-26 00:33N 34°43' W 076°41'0 0.0
2016-Apr-25 23:33N 34°43' W 076°41'0 0.0
2016-Apr-25 22:33N 34°43' W 076°41'  

Dump ship's entire track history